Aérodrome :
LOGIN :

S'inscrire | Disclaimer

   EN    FR    IT 

 










Légende :    VFR   VFR Marginal   IFR   IFR Intensif   IFR Très Intensif
Visi : 
Plafond : 
>= 8 km
>= 3000ft
5 à 8 km
1000 à 3000 ft
1500m à 5 km
500 à 1000 ft
800 à 1500m
200 à 500 ft
< 800m
< 200 ft
Symboles :   Orages  Brouillard  Fortes neiges  Fortes précipitations  Vent > 20 kt
SIGMETs :   Divers  Orages  Givrage  Turbulence  Onde Orograph.  Cendres Volcan.






- Altitude de l'aérodrome : 124 ft
- Code IATA : NHT


EGWU - RAF Northolt

DERNIER METAR :
  • 091450Z 33016KT 9999 FEW040 08/00 Q1017 NOSIG RMK BLU BLU

METARs EXPIRÉS :
  • 091420Z 34015KT 9999 FEW040 09/01 Q1016 NOSIG RMK BLU BLU
  • 091350Z 34015KT 9999 FEW040 09/02 Q1015 NOSIG RMK BLU BLU
  • 091320Z 34019G30KT 9999 FEW040 09/01 Q1014 NOSIG RMK BLU BLU
  • 091250Z 34021KT 9999 FEW038 09/02 Q1013 NOSIG RMK BLU BLU
  • 091220Z 34017G32KT 9999 FEW040 09/01 Q1012 NOSIG RMK BLU BLU
  • 091150Z 33018KT 9999 FEW032 09/02 Q1012 NOSIG

TAF TAF EGWU
Valide du 09 à 15h jusqu'au 10 à 09h UTC


091333Z 0915/1009 32014KT 9999 FEW040
PROB30
TEMPO 1007/1009 SCT020



MET'MAP, la Météo Aéronautique d'un coup d'oeil ! - Copyright ORBIFLY Décembre 2007 - Disclaimer

ORBIFLY MET'MAP TEAM :

Programmation & Développement : Alexandra Zaïnal
Sur une idée originale de : Baudouin d'Aumeries
Assistance à la programmation : Marc-Olivier Méhu
Soutien technique & logistique : Manuel Goepfert

Contact : metmap@orbifly.com




SOURCES & CREDITS :

   NOAA